Time;durP1;ratioP1;P1;durP2;ratioP2;P2;SDS_P1;SDS_P2;PMS_P1;PMS_P2;Temp;Humidity;BMP_temperature;BMP_pressure;BME280_temperature;BME280_humidity;BME280_pressure;Samples;Min_cycle;Max_cycle;Signal;HPM_P1;HPM_P2
2022/06/10 00:02:06;;;;;;;28.58;25.58;;;;;;;16.85;100.00;99140.84;5092233;28;20020;-71
2022/06/10 00:04:32;;;;;;;29.83;25.98;;;;;;;17.07;100.00;99163.31;5091978;28;20024;-72
2022/06/10 00:06:58;;;;;;;30.10;26.02;;;;;;;16.89;100.00;99128.59;5092189;28;20039;-71
2022/06/10 00:09:24;;;;;;;27.25;24.52;;;;;;;16.77;100.00;99102.03;5091845;28;20032;-71
2022/06/10 00:11:49;;;;;;;29.40;26.33;;;;;;;17.23;100.00;99151.88;5073781;28;20145;-71
2022/06/10 00:14:14;;;;;;;28.67;25.58;;;;;;;17.16;100.00;99162.69;5073698;28;20028;-71
2022/06/10 00:16:40;;;;;;;30.15;27.00;;;;;;;16.84;100.00;99141.75;5091837;28;20085;-71
2022/06/10 00:19:05;;;;;;;30.90;27.08;;;;;;;16.63;100.00;99134.66;5073807;28;20081;-71
2022/06/10 00:21:31;;;;;;;29.83;26.60;;;;;;;16.60;100.00;99104.06;5092121;28;20024;-71
2022/06/10 00:23:56;;;;;;;29.83;26.67;;;;;;;16.79;100.00;99135.28;5092357;28;20476;-72
2022/06/10 00:26:22;;;;;;;27.63;24.73;;;;;;;16.81;100.00;99124.00;5092036;28;20386;-71
2022/06/10 00:28:48;;;;;;;32.58;25.70;;;;;;;16.57;100.00;99138.44;5073985;28;20497;-71
2022/06/10 00:31:15;;;;;;;30.83;25.15;;;;;;;16.64;100.00;99128.63;5091953;28;20035;-71
2022/06/10 00:33:41;;;;;;;29.58;25.60;;;;;;;16.33;100.00;99092.09;5073411;28;20069;-71
2022/06/10 00:36:08;;;;;;;26.15;23.00;;;;;;;16.73;100.00;99103.16;5092125;28;20418;-71
2022/06/10 00:38:34;;;;;;;27.98;24.90;;;;;;;16.63;100.00;99114.94;5091793;28;20433;-72
2022/06/10 00:41:00;;;;;;;35.30;24.98;;;;;;;16.77;100.00;99140.53;5091747;28;20042;-72
2022/06/10 00:43:29;;;;;;;28.08;25.05;;;;;;;16.82;100.00;99153.88;5091797;28;20035;-71
2022/06/10 00:45:57;;;;;;;29.80;24.08;;;;;;;17.05;100.00;99150.59;5092153;28;20051;-72
2022/06/10 00:48:37;;;;;;;27.17;24.27;;;;;;;17.00;100.00;99150.06;5091543;28;20040;-72
2022/06/10 00:51:12;;;;;;;25.55;22.98;;;;;;;16.67;100.00;99124.09;5073436;28;20398;-71
2022/06/10 00:53:38;;;;;;;26.85;23.92;;;;;;;16.77;100.00;99121.72;5091193;28;20039;-70
2022/06/10 00:56:14;;;;;;;27.88;24.38;;;;;;;16.47;100.00;99086.06;5090930;28;20028;-70
2022/06/10 00:59:04;;;;;;;31.15;24.20;;;;;;;16.98;100.00;99144.22;5091235;28;20036;-70
2022/06/10 01:01:32;;;;;;;27.63;24.75;;;;;;;17.16;100.00;99137.84;5090474;28;20615;-70
2022/06/10 01:03:59;;;;;;;27.80;24.60;;;;;;;16.74;100.00;99121.94;5073290;28;20074;-70
2022/06/10 01:06:24;;;;;;;29.35;25.50;;;;;;;16.77;100.00;99143.09;5091284;28;20105;-69
2022/06/10 01:08:52;;;;;;;29.05;25.27;;;;;;;16.74;100.00;99150.97;5072775;28;20474;-70
2022/06/10 01:11:20;;;;;;;30.17;24.40;;;;;;;16.89;100.00;99147.41;5073067;28;20031;-71
2022/06/10 01:14:07;;;;;;;29.17;25.48;;;;;;;16.80;100.00;99142.03;5091473;28;20039;-69
2022/06/10 01:16:47;;;;;;;29.60;25.63;;;;;;;16.88;100.00;99143.19;5090902;28;20472;-69
2022/06/10 01:19:27;;;;;;;27.35;23.08;;;;;;;17.07;100.00;99153.06;5091048;28;20470;-70
2022/06/10 01:21:59;;;;;;;26.48;23.67;;;;;;;17.15;100.00;99143.88;5073057;28;20036;-71
2022/06/10 01:24:36;;;;;;;29.27;25.17;;;;;;;16.94;100.00;99147.91;5091415;28;20043;-69
2022/06/10 01:30:23;;;;;;;28.08;24.15;;;;;;;16.87;100.00;99148.44;5090895;28;20039;-69
2022/06/10 01:33:18;;;;;;;30.17;24.40;;;;;;;16.65;100.00;99094.31;5077079;28;20063;-70
2022/06/10 01:36:05;;;;;;;30.17;26.02;;;;;;;16.80;100.00;99134.34;5091085;28;20038;-70
2022/06/10 01:38:52;;;;;;;33.38;26.70;;;;;;;16.33;100.00;99066.44;5090839;28;20039;-70
2022/06/10 01:41:29;;;;;;;31.67;25.65;;;;;;;16.92;100.00;99116.38;5090959;28;20032;-70
2022/06/10 01:44:20;;;;;;;33.00;26.30;;;;;;;16.72;100.00;99113.53;5091089;28;20032;-71
2022/06/10 01:46:58;;;;;;;28.45;25.35;;;;;;;17.19;100.00;99121.41;5090576;28;20418;-69
2022/06/10 01:49:34;;;;;;;30.00;24.98;;;;;;;17.32;100.00;99099.88;5090674;28;20470;-69
2022/06/10 01:52:09;;;;;;;28.92;25.60;;;;;;;17.47;100.00;99122.88;5090830;28;20493;-70
2022/06/10 01:54:41;;;;;;;31.50;25.85;;;;;;;16.91;100.00;99129.31;5090920;28;20067;-70
2022/06/10 01:57:13;;;;;;;29.55;25.88;;;;;;;16.97;100.00;99128.91;5090871;28;20490;-71
2022/06/10 01:59:51;;;;;;;27.55;24.67;;;;;;;16.84;100.00;99108.38;5090940;28;20312;-70
2022/06/10 02:02:23;;;;;;;25.83;23.08;;;;;;;16.73;100.00;99071.53;5091081;28;20028;-71
2022/06/10 02:05:19;;;;;;;33.05;25.50;;;;;;;16.79;100.00;99125.84;5072527;28;20123;-70
2022/06/10 02:08:16;;;;;;;31.38;27.15;;;;;;;16.89;100.00;99144.84;5092937;28;20513;-70
2022/06/10 02:11:09;;;;;;;30.27;25.73;;;;;;;16.82;100.00;99137.63;5041606;28;20036;-72
2022/06/10 02:13:41;;;;;;;30.45;26.27;;;;;;;17.30;100.00;99152.28;5093685;28;20032;-70
2022/06/10 02:16:12;;;;;;;29.55;25.67;;;;;;;17.09;100.00;99134.03;5094361;28;20373;-70
2022/06/10 02:18:49;;;;;;;29.13;25.85;;;;;;;16.94;100.00;99140.22;5094497;28;20161;-70
2022/06/10 02:21:30;;;;;;;29.58;26.48;;;;;;;17.19;100.00;99163.28;5093871;28;20028;-70
2022/06/10 02:24:04;;;;;;;30.50;26.45;;;;;;;17.20;100.00;99169.25;5094699;28;20032;-70
2022/06/10 02:26:34;;;;;;;28.90;25.83;;;;;;;17.12;100.00;99140.72;5076006;28;20040;-71
2022/06/10 02:29:03;;;;;;;29.58;26.23;;;;;;;17.07;100.00;99146.16;5094314;28;20496;-70
2022/06/10 02:31:36;;;;;;;28.45;24.90;;;;;;;17.46;100.00;99175.19;5075356;28;20093;-69
2022/06/10 02:34:03;;;;;;;31.45;27.10;;;;;;;17.45;100.00;99183.84;5094204;28;20032;-74
2022/06/10 02:36:54;;;;;;;35.20;28.85;;;;;;;17.24;100.00;99183.53;5075725;28;20036;-72
2022/06/10 02:39:33;;;;;;;31.70;28.30;;;;;;;17.17;100.00;99148.94;5066811;28;20028;-71
2022/06/10 02:42:12;;;;;;;33.97;29.02;;;;;;;17.54;100.00;99189.19;5093932;28;20098;-71
2022/06/10 02:45:16;;;;;;;34.92;29.50;;;;;;;17.55;100.00;99187.47;5093888;28;20028;-70
2022/06/10 02:48:09;;;;;;;37.13;29.13;;;;;;;17.52;100.00;99155.06;5075167;28;20044;-70
2022/06/10 02:50:35;;;;;;;31.67;28.08;;;;;;;17.70;100.00;99181.22;5073380;28;20043;-71
2022/06/10 02:53:03;;;;;;;37.58;30.30;;;;;;;17.51;100.00;99186.81;5089995;28;20032;-71
2022/06/10 02:55:30;;;;;;;35.88;29.85;;;;;;;17.54;100.00;99153.22;5089905;28;20505;-71
2022/06/10 03:01:12;;;;;;;33.33;29.10;;;;;;;17.76;100.00;99166.22;5094194;28;20035;-73
2022/06/10 03:04:13;;;;;;;34.75;30.20;;;;;;;17.28;100.00;99144.69;5075763;28;20073;-71
2022/06/10 03:07:10;;;;;;;34.05;28.75;;;;;;;17.37;100.00;99168.94;5075399;28;20039;-72
2022/06/10 03:09:58;;;;;;;34.95;29.58;;;;;;;17.42;100.00;99164.31;5093700;28;20044;-72
2022/06/10 03:13:02;;;;;;;38.22;31.05;;;;;;;17.42;100.00;99161.72;5093784;28;20059;-72
2022/06/10 03:15:40;;;;;;;34.20;29.90;;;;;;;17.22;100.00;99162.28;5092766;28;20098;-72
2022/06/10 03:18:18;;;;;;;31.48;27.88;;;;;;;17.03;100.00;99113.09;5093296;28;20065;-73
2022/06/10 03:20:53;;;;;;;34.83;29.13;;;;;;;17.10;100.00;99174.22;5093081;28;20028;-73
2022/06/10 03:23:30;;;;;;;34.33;28.58;;;;;;;17.10;100.00;99169.06;5093686;28;20085;-72
2022/06/10 03:26:06;;;;;;;31.63;28.10;;;;;;;16.94;100.00;99150.47;5075294;28;20024;-73
2022/06/10 03:28:50;;;;;;;31.17;27.40;;;;;;;16.92;100.00;99136.09;5075392;28;20024;-73
2022/06/10 03:31:38;;;;;;;31.27;27.73;;;;;;;17.08;100.00;99175.22;5092741;28;20115;-73
2022/06/10 03:34:22;;;;;;;31.00;27.55;;;;;;;17.07;100.00;99176.97;5090525;28;20044;-73
2022/06/10 03:36:49;;;;;;;31.05;27.75;;;;;;;17.08;100.00;99181.19;5092634;28;20416;-74
2022/06/10 03:39:15;;;;;;;33.85;28.23;;;;;;;17.17;100.00;99188.25;5092935;28;20055;-73
2022/06/10 03:41:54;;;;;;;31.40;27.08;;;;;;;17.27;100.00;99179.00;5074989;28;20062;-73
2022/06/10 03:44:21;;;;;;;30.73;26.75;;;;;;;17.31;100.00;99195.88;5093306;28;20078;-73
2022/06/10 03:46:50;;;;;;;28.98;25.98;;;;;;;17.42;100.00;99182.28;5092717;28;20047;-75
2022/06/10 03:49:21;;;;;;;27.92;24.95;;;;;;;17.23;100.00;99156.22;5092990;28;20059;-73
2022/06/10 03:51:47;;;;;;;31.60;26.00;;;;;;;17.34;100.00;99190.53;5075196;28;20055;-73
2022/06/10 03:54:18;;;;;;;30.42;26.70;;;;;;;17.39;100.00;99182.50;5074848;28;20391;-73
2022/06/10 03:56:44;;;;;;;29.85;26.70;;;;;;;17.29;100.00;99187.44;5092960;28;20024;-74
2022/06/10 03:59:09;;;;;;;32.22;27.95;;;;;;;17.29;100.00;99184.88;5092626;28;20035;-74
2022/06/10 04:01:35;;;;;;;31.30;27.02;;;;;;;17.32;100.00;99179.53;5069733;28;20032;-73
2022/06/10 04:04:03;;;;;;;29.58;26.40;;;;;;;17.44;100.00;99169.31;5080454;28;20108;-73
2022/06/10 04:06:31;;;;;;;32.38;27.48;;;;;;;17.54;100.00;99176.34;5078301;28;20039;-75
2022/06/10 04:08:56;;;;;;;31.90;27.50;;;;;;;17.56;100.00;99176.22;5085935;28;20039;-73
2022/06/10 04:11:22;;;;;;;31.13;27.63;;;;;;;17.63;100.00;99177.47;5079712;28;20024;-74
2022/06/10 04:13:47;;;;;;;29.90;26.83;;;;;;;17.67;100.00;99153.97;5059589;28;20135;-73
2022/06/10 04:16:13;;;;;;;34.25;27.88;;;;;;;18.14;100.00;99223.47;5079018;28;20024;-74
2022/06/10 04:18:39;;;;;;;31.45;28.02;;;;;;;18.04;100.00;99198.53;5057004;28;20063;-73
2022/06/10 04:21:05;;;;;;;32.38;28.92;;;;;;;17.87;100.00;99186.84;5060050;28;20036;-73
2022/06/10 04:23:31;;;;;;;29.80;26.65;;;;;;;18.21;100.00;99205.84;5080593;28;20407;-73
2022/06/10 04:25:56;;;;;;;32.85;29.05;;;;;;;18.20;100.00;99212.72;5061396;28;20579;-74
2022/06/10 04:28:22;;;;;;;32.42;28.92;;;;;;;18.44;100.00;99217.09;5057188;28;20038;-73
2022/06/10 04:30:50;;;;;;;34.88;26.23;;;;;;;18.58;100.00;99222.06;5087415;28;20468;-71
2022/06/10 04:33:16;;;;;;;32.08;27.80;;;;;;;18.98;100.00;99221.59;5075970;28;20024;-73
2022/06/10 04:35:43;;;;;;;32.05;26.02;;;;;;;18.75;100.00;99203.63;5072848;28;20035;-71
2022/06/10 04:38:12;;;;;;;27.85;24.42;;;;;;;18.93;100.00;99215.16;5059637;28;20037;-71
2022/06/10 04:40:39;;;;;;;27.70;24.80;;;;;;;18.80;100.00;99219.53;5084597;28;20031;-73
2022/06/10 04:43:06;;;;;;;28.33;24.50;;;;;;;18.92;100.00;99198.84;5081594;28;20506;-74
2022/06/10 04:45:38;;;;;;;26.67;23.77;;;;;;;18.82;100.00;99185.03;5086410;28;20034;-72
2022/06/10 04:48:04;;;;;;;28.30;25.30;;;;;;;18.91;100.00;99204.13;5082647;28;20119;-70
2022/06/10 04:50:31;;;;;;;28.08;25.05;;;;;;;18.49;100.00;99166.91;5091324;28;20048;-70
2022/06/10 04:52:57;;;;;;;29.42;26.42;;;;;;;18.62;100.00;99210.63;5073165;28;20038;-70
2022/06/10 04:55:25;;;;;;;29.40;26.17;;;;;;;18.65;100.00;99226.66;5073071;28;20058;-70
2022/06/10 04:57:51;;;;;;;30.05;26.88;;;;;;;18.68;100.00;99221.28;5091396;28;20440;-70
2022/06/10 05:00:22;;;;;;;29.85;26.65;;;;;;;18.32;100.00;99187.06;5090917;28;20035;-71
2022/06/10 05:02:47;;;;;;;31.58;27.20;;;;;;;18.59;100.00;99250.28;5073269;28;20065;-71
2022/06/10 05:05:12;;;;;;;32.65;25.92;;;;;;;18.87;100.00;99238.78;5091632;28;20110;-71
2022/06/10 05:07:38;;;;;;;29.70;26.42;;;;;;;18.52;100.00;99223.31;5091064;28;20043;-69
2022/06/10 05:10:05;;;;;;;30.75;27.13;;;;;;;18.75;100.00;99212.19;5091503;28;20071;-71
2022/06/10 05:12:31;;;;;;;29.88;26.25;;;;;;;18.82;100.00;99228.81;5091202;28;20035;-71
2022/06/10 05:14:56;;;;;;;31.67;28.38;;;;;;;18.88;100.00;99219.81;5091329;28;20020;-71
2022/06/10 05:17:22;;;;;;;32.55;27.73;;;;;;;18.84;100.00;99223.53;5091283;28;20035;-71
2022/06/10 05:19:47;;;;;;;30.35;27.08;;;;;;;19.16;100.00;99203.09;5072935;28;20112;-71
2022/06/10 05:22:16;;;;;;;31.00;27.55;;;;;;;18.89;100.00;99191.38;5091211;28;20551;-71
2022/06/10 05:24:42;;;;;;;31.05;26.55;;;;;;;19.44;100.00;99221.56;5073255;28;20020;-72
2022/06/10 05:27:08;;;;;;;30.55;27.45;;;;;;;19.31;100.00;99254.34;5091277;28;20024;-72
2022/06/10 05:29:34;;;;;;;32.42;28.05;;;;;;;19.47;100.00;99229.03;5090885;28;20033;-70
2022/06/10 05:31:59;;;;;;;30.10;26.90;;;;;;;19.71;100.00;99259.88;5072870;28;20040;-72
2022/06/10 05:37:09;;;;;;;31.60;27.67;;;;;;;19.58;100.00;99200.69;5091079;28;20575;-70
2022/06/10 05:39:34;;;;;;;30.25;27.08;;;;;;;19.88;100.00;99221.53;5090948;28;20036;-71
2022/06/10 05:42:06;;;;;;;31.00;26.85;;;;;;;20.15;100.00;99236.59;5093739;28;20032;-70
2022/06/10 05:44:32;;;;;;;;;;;;;;;19.88;100.00;99269.72;5095128;28;20028;-70
2022/06/10 05:47:00;;;;;;;29.95;26.75;;;;;;;19.94;100.00;99255.53;5094718;28;19922;-70
2022/06/10 05:49:26;;;;;;;29.98;26.88;;;;;;;20.07;100.00;99233.78;5076591;28;20135;-70
2022/06/10 05:51:51;;;;;;;31.75;28.35;;;;;;;19.89;100.00;99246.38;5094665;28;20115;-70
2022/06/10 05:54:17;;;;;;;32.63;29.13;;;;;;;19.77;100.00;99277.47;5076411;28;20020;-71
2022/06/10 05:56:46;;;;;;;32.78;28.77;;;;;;;20.07;100.00;99285.41;5094801;28;20542;-74
2022/06/10 05:59:14;;;;;;;32.65;29.00;;;;;;;19.64;100.00;99258.72;5076489;28;20024;-71
2022/06/10 06:01:39;;;;;;;34.85;29.17;;;;;;;19.92;100.00;99299.53;5094917;28;20024;-71
2022/06/10 06:04:05;;;;;;;35.03;30.05;;;;;;;20.20;100.00;99296.47;5094706;28;20032;-71
2022/06/10 06:06:31;;;;;;;32.75;29.27;;;;;;;20.19;100.00;99289.66;5094107;28;20027;-71
2022/06/10 06:08:56;;;;;;;34.35;29.80;;;;;;;20.46;100.00;99291.84;5094244;28;20038;-70
2022/06/10 06:11:22;;;;;;;36.17;30.80;;;;;;;20.17;100.00;99273.44;5094740;28;20028;-71
2022/06/10 06:13:47;;;;;;;33.88;30.17;;;;;;;19.97;100.00;99258.69;5076122;28;20055;-71
2022/06/10 06:16:16;;;;;;;36.35;30.98;;;;;;;20.17;100.00;99301.00;5076276;28;20032;-71
2022/06/10 06:18:42;;;;;;;35.97;31.08;;;;;;;20.23;100.00;99290.22;5076275;28;20035;-71
2022/06/10 06:21:08;;;;;;;35.67;30.27;;;;;;;20.60;100.00;99287.19;5094730;28;20032;-72
2022/06/10 06:23:34;;;;;;;33.83;29.67;;;;;;;20.66;100.00;99317.69;5075807;28;20055;-71
2022/06/10 06:26:00;;;;;;;32.97;29.38;;;;;;;20.99;100.00;99287.50;5094322;28;20484;-73
2022/06/10 06:28:27;;;;;;;33.42;30.02;;;;;;;20.35;100.00;99295.25;5075760;28;20028;-71
2022/06/10 06:30:53;;;;;;;33.42;29.92;;;;;;;20.76;100.00;99319.56;5094024;28;20024;-72
2022/06/10 06:33:19;;;;;;;33.22;29.70;;;;;;;20.97;100.00;99312.66;5094065;28;20058;-73
2022/06/10 06:35:49;;;;;;;33.10;29.60;;;;;;;20.87;100.00;99291.91;5093997;28;20041;-71
2022/06/10 06:38:15;;;;;;;32.90;28.83;;;;;;;21.10;100.00;99303.81;5076091;28;20046;-71
2022/06/10 06:40:42;;;;;;;33.22;29.80;;;;;;;20.84;100.00;99294.72;5075819;28;20115;-71
2022/06/10 06:43:09;;;;;;;34.10;28.73;;;;;;;21.37;100.00;99314.44;5093812;28;20020;-71
2022/06/10 06:45:35;;;;;;;32.38;28.65;;;;;;;21.08;100.00;99321.19;5093793;28;20474;-70
2022/06/10 06:48:03;;;;;;;32.28;28.98;;;;;;;21.19;100.00;99321.16;5093686;28;20498;-72
2022/06/10 06:50:31;;;;;;;32.63;29.08;;;;;;;21.15;100.00;99296.50;5075526;28;20027;-72
2022/06/10 06:52:57;;;;;;;36.58;30.48;;;;;;;20.97;100.00;99279.88;5092859;28;20418;-72
2022/06/10 06:55:22;;;;;;;34.80;31.13;;;;;;;21.27;100.00;99315.34;5093392;28;20501;-73
2022/06/10 06:57:49;;;;;;;31.88;28.33;;;;;;;21.35;100.00;99281.91;5075167;28;20036;-73
2022/06/10 07:00:16;;;;;;;32.33;27.98;;;;;;;21.41;100.00;99294.34;5093920;28;20619;-70
2022/06/10 07:02:41;;;;;;;31.40;28.08;;;;;;;21.36;100.00;99284.38;5093567;28;20089;-70
2022/06/10 07:05:07;;;;;;;31.75;28.45;;;;;;;22.01;100.00;99315.06;5075309;28;20127;-70
2022/06/10 07:07:34;;;;;;;30.23;26.45;;;;;;;21.48;100.00;99303.22;5093409;28;20165;-70
2022/06/10 07:09:59;;;;;;;29.48;26.38;;;;;;;21.85;100.00;99342.41;5093290;28;20040;-70
2022/06/10 07:12:25;;;;;;;30.52;25.90;;;;;;;21.41;100.00;99351.25;5093113;28;20154;-71
2022/06/10 07:14:50;;;;;;;29.27;26.13;;;;;;;21.47;100.00;99348.97;5075413;28;20422;-72
2022/06/10 07:17:17;;;;;;;33.60;28.40;;;;;;;21.44;100.00;99315.59;5075363;28;20032;-71
2022/06/10 07:19:42;;;;;;;32.80;27.45;;;;;;;21.89;100.00;99354.13;5092997;28;20046;-70
2022/06/10 07:22:08;;;;;;;31.52;27.63;;;;;;;21.74;100.00;99363.13;5093099;28;20026;-71
2022/06/10 07:24:34;;;;;;;30.80;27.58;;;;;;;21.48;100.00;99347.19;5093171;28;20035;-71
2022/06/10 07:27:00;;;;;;;31.83;28.48;;;;;;;21.49;100.00;99343.69;5093082;28;20024;-71
2022/06/10 07:29:27;;;;;;;28.88;25.95;;;;;;;22.62;100.00;99327.94;5075052;28;20042;-72
2022/06/10 07:31:53;;;;;;;30.73;26.52;;;;;;;22.64;100.00;99367.50;5092882;28;20056;-71
2022/06/10 07:34:18;;;;;;;28.95;25.95;;;;;;;22.60;100.00;99386.84;5093030;28;20103;-71
2022/06/10 07:36:44;;;;;;;29.00;26.10;;;;;;;22.48;100.00;99377.50;5092950;28;20034;-71
2022/06/10 07:39:09;;;;;;;28.58;25.67;;;;;;;22.89;100.00;99377.34;5092472;28;20486;-72
2022/06/10 07:44:20;;;;;;;27.95;25.08;;;;;;;22.65;100.00;99369.94;5093343;28;20093;-72
2022/06/10 07:46:48;;;;;;;28.27;25.55;;;;;;;22.55;100.00;99378.59;5093134;28;20093;-71
2022/06/10 07:49:13;;;;;;;28.17;25.30;;;;;;;22.66;100.00;99345.66;5074293;28;20118;-72
2022/06/10 07:51:38;;;;;;;28.38;25.35;;;;;;;23.02;100.00;99342.41;5092715;28;20542;-71
2022/06/10 07:54:04;;;;;;;28.08;25.15;;;;;;;22.89;100.00;99374.75;5092421;28;20024;-73
2022/06/10 07:56:29;;;;;;;27.20;24.58;;;;;;;22.91;100.00;99375.41;5074598;28;20206;-72
2022/06/10 07:58:58;;;;;;;28.23;25.52;;;;;;;23.43;100.00;99384.59;5093157;28;20020;-72
2022/06/10 08:01:25;;;;;;;27.27;24.42;;;;;;;23.37;100.00;99387.75;5092490;28;20500;-72
2022/06/10 08:03:50;;;;;;;26.67;23.98;;;;;;;22.91;100.00;99360.69;5074176;28;20032;-74
2022/06/10 08:06:17;;;;;;;25.80;23.20;;;;;;;23.05;100.00;99398.38;5092024;28;20032;-72
2022/06/10 08:08:43;;;;;;;25.00;22.60;;;;;;;22.51;100.00;99331.41;5092443;28;20127;-72
2022/06/10 08:11:08;;;;;;;25.27;22.85;;;;;;;23.01;100.00;99360.69;5074532;28;20028;-72
2022/06/10 08:13:35;;;;;;;26.65;22.83;;;;;;;23.28;100.00;99389.34;5074649;28;20483;-72
2022/06/10 08:16:00;;;;;;;26.73;22.42;;;;;;;22.92;100.00;99374.47;5074176;28;20030;-72
2022/06/10 08:18:26;;;;;;;25.20;22.75;;;;;;;22.66;100.00;99373.34;5092554;28;20035;-73
2022/06/10 08:23:37;;;;;;;25.58;21.75;;;;;;;23.32;100.00;99408.91;5092226;28;20085;-72
2022/06/10 08:26:06;;;;;;;24.42;21.90;;;;;;;23.09;100.00;99410.09;5074010;28;20028;-72
2022/06/10 08:28:32;;;;;;;23.52;21.33;;;;;;;23.13;100.00;99395.91;5091849;28;20036;-72
2022/06/10 08:30:58;;;;;;;24.15;21.85;;;;;;;22.82;100.00;99377.03;5074165;28;20027;-73
2022/06/10 08:33:24;;;;;;;24.48;21.92;;;;;;;23.17;100.00;99392.09;5073700;28;20034;-72
2022/06/10 08:35:50;;;;;;;24.25;21.95;;;;;;;23.54;100.00;99429.38;5091734;28;20051;-73
2022/06/10 08:38:17;;;;;;;22.48;20.00;;;;;;;23.20;100.00;99373.66;5092187;28;20028;-72
2022/06/10 08:41:04;;;;;;;23.02;20.63;;;;;;;23.46;100.00;99431.84;5074034;28;20476;-71
2022/06/10 08:43:38;;;;;;;24.00;21.48;;;;;;;23.20;100.00;99402.19;5092255;28;20036;-73
2022/06/10 08:46:26;;;;;;;22.02;19.75;;;;;;;23.05;100.00;99442.47;5073698;28;20054;-73
2022/06/10 08:49:22;;;;;;;22.42;20.13;;;;;;;23.19;100.00;99442.06;5092057;28;20039;-72
2022/06/10 08:52:06;;;;;;;23.35;21.08;;;;;;;23.30;100.00;99441.91;5092031;28;20028;-72
2022/06/10 08:55:12;;;;;;;22.02;19.85;;;;;;;23.06;100.00;99434.53;5091664;28;20032;-72
2022/06/10 08:57:44;;;;;;;23.35;20.95;;;;;;;23.18;100.00;99438.66;5092185;28;20028;-72
2022/06/10 09:00:21;;;;;;;22.73;20.42;;;;;;;23.33;100.00;99453.84;5091788;28;20036;-72
2022/06/10 09:03:00;;;;;;;22.35;20.02;;;;;;;23.33;100.00;99407.13;5073863;28;20482;-71
2022/06/10 09:05:28;;;;;;;24.75;21.33;;;;;;;23.46;100.00;99442.22;5091925;28;20024;-72
2022/06/10 09:08:00;;;;;;;24.05;21.65;;;;;;;23.37;100.00;99411.09;5091832;28;20085;-72
2022/06/10 09:11:03;;;;;;;22.88;20.75;;;;;;;23.65;100.00;99437.00;5092010;28;20028;-71
2022/06/10 09:13:39;;;;;;;23.02;20.65;;;;;;;23.56;100.00;99440.44;5091978;28;20059;-74
2022/06/10 09:16:20;;;;;;;22.35;20.25;;;;;;;23.16;100.00;99431.94;5093269;28;20050;-73
2022/06/10 09:19:00;;;;;;;;;;;;;;;23.90;100.00;99420.84;5078489;28;20055;-73
2022/06/10 09:21:31;;;;;;;21.77;19.52;;;;;;;23.90;100.00;99427.81;5077815;28;19913;-71
2022/06/10 09:23:58;;;;;;;;;;;;;;;23.81;100.00;99426.06;5096387;28;20047;-72
2022/06/10 09:26:40;;;;;;;21.75;19.55;;;;;;;24.05;100.00;99429.03;5095963;28;19919;-71
2022/06/10 09:29:06;;;;;;;22.42;20.25;;;;;;;23.95;100.00;99410.00;5095849;28;20512;-71
2022/06/10 09:31:34;;;;;;;24.45;20.17;;;;;;;23.93;100.00;99423.16;5078001;28;20024;-73
2022/06/10 09:34:02;;;;;;;22.55;20.17;;;;;;;23.28;100.00;99418.72;5095473;28;20478;-72
2022/06/10 09:36:41;;;;;;;22.23;19.95;;;;;;;23.22;100.00;99411.47;5095375;28;20127;-69
2022/06/10 09:42:42;;;;;;;21.80;19.50;;;;;;;23.37;100.00;99413.69;5095754;28;20039;-73
2022/06/10 09:45:07;;;;;;;23.10;19.45;;;;;;;23.39;100.00;99411.78;5095727;28;20032;-72
2022/06/10 09:47:50;;;;;;;21.55;17.88;;;;;;;23.17;100.00;99384.31;5077412;28;20070;-72
2022/06/10 09:50:34;;;;;;;19.70;17.63;;;;;;;23.57;100.00;99416.09;5077180;28;20049;-73
2022/06/10 09:53:12;;;;;;;18.73;16.73;;;;;;;23.76;100.00;99420.47;5077106;28;20046;-72
2022/06/10 09:56:03;;;;;;;21.73;18.33;;;;;;;23.62;100.00;99393.16;5095224;28;20486;-73
2022/06/10 09:58:59;;;;;;;22.10;18.65;;;;;;;23.43;100.00;99434.72;5095262;28;20028;-74
2022/06/10 10:01:39;;;;;;;22.90;20.33;;;;;;;23.33;100.00;99392.41;5095357;28;20105;-73
2022/06/10 10:04:16;;;;;;;19.85;17.70;;;;;;;23.50;100.00;99429.78;5095247;28;20032;-73
2022/06/10 10:07:03;;;;;;;22.40;20.02;;;;;;;23.75;100.00;99432.63;5094970;28;20157;-73
2022/06/10 10:09:36;;;;;;;22.45;20.15;;;;;;;23.53;100.00;99430.31;5090220;28;20036;-73
2022/06/10 10:12:39;;;;;;;19.60;17.60;;;;;;;23.31;100.00;99378.75;5095042;28;20035;-73
2022/06/10 10:15:33;;;;;;;22.73;18.90;;;;;;;23.46;100.00;99425.81;5094725;28;20039;-74
2022/06/10 10:18:12;;;;;;;22.83;19.15;;;;;;;23.60;100.00;99423.63;5095021;28;20071;-73
2022/06/10 10:21:17;;;;;;;19.10;16.40;;;;;;;23.60;100.00;99422.81;5094831;28;20032;-73
2022/06/10 10:23:46;;;;;;;12.05;9.93;;;;;;;22.83;100.00;99406.41;5094513;28;20540;-72
2022/06/10 10:26:34;;;;;;;9.80;8.80;;;;;;;22.97;100.00;99421.56;5094646;28;20035;-73
2022/06/10 10:29:04;;;;;;;12.10;8.77;;;;;;;23.05;100.00;99421.72;5075251;28;20036;-72
2022/06/10 10:31:36;;;;;;;9.75;8.85;;;;;;;23.12;100.00;99425.38;5094594;28;20041;-72
2022/06/10 10:34:04;;;;;;;14.48;7.95;;;;;;;22.84;100.00;99421.00;5094800;28;20482;-73
2022/06/10 10:36:32;;;;;;;20.73;9.88;;;;;;;22.25;100.00;99405.38;5094116;28;20050;-71
2022/06/10 10:39:24;;;;;;;15.93;10.27;;;;;;;22.04;100.00;99376.13;5094177;28;20080;-72
2022/06/10 10:41:49;;;;;;;;;;;;;;;22.15;100.00;99376.03;5094683;28;20028;-72
2022/06/10 10:44:29;;;;;;;20.05;10.50;;;;;;;22.18;100.00;99342.94;5093651;28;20349;-73
2022/06/10 10:47:10;;;;;;;19.38;11.20;;;;;;;22.55;100.00;99383.78;5093692;28;20135;-72
2022/06/10 10:50:04;;;;;;;17.30;11.50;;;;;;;23.58;100.00;99380.59;5075887;28;20387;-72
2022/06/10 10:52:40;;;;;;;12.95;10.20;;;;;;;23.25;100.00;99389.63;5075867;28;20101;-73
2022/06/10 10:55:12;;;;;;;15.40;12.00;;;;;;;23.89;100.00;99389.81;5094119;28;20028;-74
2022/06/10 10:57:39;;;;;;;;;;;;;;;23.34;100.00;99401.81;5076476;28;20379;-74
2022/06/10 11:00:14;;;;;;;10.60;9.18;;;;;;;23.77;100.00;99399.53;5094120;28;19912;-73
2022/06/10 11:02:57;;;;;;;11.65;9.98;;;;;;;23.06;100.00;99343.75;5075846;28;20024;-74
2022/06/10 11:05:35;;;;;;;10.18;9.18;;;;;;;23.75;100.00;99388.47;5094067;28;20106;-72
2022/06/10 11:08:22;;;;;;;10.80;9.07;;;;;;;24.06;100.00;99382.16;5093946;28;20031;-73
2022/06/10 11:10:58;;;;;;;18.95;11.35;;;;;;;23.60;100.00;99358.75;5094085;28;20036;-72
2022/06/10 11:14:04;;;;;;;13.43;9.70;;;;;;;24.55;100.00;99395.72;5075657;28;20119;-74
2022/06/10 11:16:30;;;;;;;9.52;8.52;;;;;;;24.75;100.00;99411.09;5075711;28;20059;-73
2022/06/10 11:19:05;;;;;;;7.97;7.10;;;;;;;24.91;100.00;99426.03;5093851;28;20104;-73
2022/06/10 11:21:45;;;;;;;6.38;5.72;;;;;;;24.58;100.00;99382.44;5093897;28;20036;-73
2022/06/10 11:24:15;;;;;;;10.32;8.52;;;;;;;25.81;100.00;99438.88;5094118;28;20079;-73
2022/06/10 11:26:48;;;;;;;8.00;6.50;;;;;;;25.43;100.00;99427.03;5075709;28;20169;-74
2022/06/10 11:29:14;;;;;;;9.65;6.60;;;;;;;25.08;100.00;99424.44;5075069;28;20147;-73
2022/06/10 11:31:50;;;;;;;10.20;6.55;;;;;;;26.22;100.00;99425.16;5093603;28;20099;-75
2022/06/10 11:34:34;;;;;;;12.23;7.60;;;;;;;25.91;100.00;99437.78;5093419;28;20035;-74
2022/06/10 11:36:59;;;;;;;9.38;8.13;;;;;;;25.76;100.00;99434.13;5093250;28;20055;-73
2022/06/10 11:39:29;;;;;;;11.80;8.60;;;;;;;26.09;100.00;99435.16;5074957;28;20119;-73
2022/06/10 11:42:07;;;;;;;12.30;7.40;;;;;;;25.66;100.00;99397.75;5093384;28;20024;-73
2022/06/10 11:44:37;;;;;;;6.55;5.90;;;;;;;25.21;100.00;99370.22;5093649;28;20024;-74
2022/06/10 11:47:15;;;;;;;7.07;6.20;;;;;;;26.07;100.00;99396.22;5092241;28;20052;-73
2022/06/10 11:49:50;;;;;;;9.05;6.10;;;;;;;26.08;100.00;99412.69;5093231;28;20130;-73
2022/06/10 11:52:28;;;;;;;7.38;6.05;;;;;;;26.00;100.00;99410.00;5075116;28;20024;-73
2022/06/10 11:54:59;;;;;;;7.40;6.57;;;;;;;25.89;100.00;99413.69;5092712;28;20039;-74